Posh Shearwater — 3EJM7 — position and weather

sailwx.info

Track history (hours):
 
Tides and Currents Weather Stations Pressure Air Temp Water Temp Dewpoint Dewpoint Depression Visibility Wind Speed Wind Dir Waves Ship Positions

Posh Shearwater

Last reported at 2018-Feb-17 23:00 UTC. Time now 2018-Feb-17 23:14 UTC.
Position S 05°17' E 011°24'.

Length 79 m; draft 5 m.

Type: Other ship. MMSI: 371556000.

Date/timePositionNaut miles runAvg speedWind from/ knotsBaromVisibWave heightAir tempDewpointWater temp
2018-Feb-17 23:00S 05°17' E 011°24'2 2.9
2018-Feb-17 22:28S 05°15' E 011°24'3 6.3
2018-Feb-17 22:00S 05°13' E 011°26'3 6.1
2018-Feb-17 21:28S 05°10' E 011°27'33 5.0
2018-Feb-17 14:52S 04°47' E 011°51'0 0.0
2018-Feb-17 14:25S 04°47' E 011°51'0 0.0
2018-Feb-17 13:58S 04°47' E 011°51'0 0.0
2018-Feb-17 02:46S 04°47' E 011°51'0 0.0
2018-Feb-17 02:25S 04°47' E 011°51'0 0.0
2018-Feb-17 01:58S 04°47' E 011°51'30 0.6
2018-Feb-15 00:12S 05°08' E 011°29'1 6.3
2018-Feb-14 23:59S 05°09' E 011°29'3 6.3
2018-Feb-14 23:28S 05°12' E 011°27'3 6.4
2018-Feb-14 23:00S 05°15' E 011°26'3 6.3
2018-Feb-14 22:29S 05°18' E 011°25'3 5.6
2018-Feb-14 22:00S 05°20' E 011°24'0 0.6
2018-Feb-14 21:30S 05°20' E 011°24'0 0.0
2018-Feb-14 20:58S 05°20' E 011°24'0 0.0
2018-Feb-14 20:29S 05°20' E 011°24'0 0.0
2018-Feb-14 20:00S 05°20' E 011°24'0 0.0
2018-Feb-14 19:30S 05°20' E 011°24'0 0.0
2018-Feb-14 18:58S 05°20' E 011°24'0 0.0
2018-Feb-14 18:30S 05°20' E 011°24'0 0.0
2018-Feb-14 18:00S 05°20' E 011°24'0 0.0
2018-Feb-14 17:29S 05°20' E 011°24'0 0.0
2018-Feb-14 16:58S 05°20' E 011°24'0 0.3
2018-Feb-14 16:30S 05°20' E 011°24'0 0.3
2018-Feb-14 15:58S 05°20' E 011°24'0 0.0
2018-Feb-14 15:30S 05°20' E 011°24'0 0.0
2018-Feb-14 14:52S 05°20' E 011°24'0 0.0
2018-Feb-14 14:29S 05°20' E 011°24'0 0.4
2018-Feb-14 13:58S 05°20' E 011°24'0 0.3
2018-Feb-14 13:30S 05°20' E 011°23'0 0.6
2018-Feb-14 13:00S 05°19' E 011°23'3 5.2
2018-Feb-14 12:30S 05°17' E 011°24'3 5.6
2018-Feb-14 12:00S 05°14' E 011°23'1 1.4
2018-Feb-14 11:30S 05°14' E 011°24'1 1.1
2018-Feb-14 10:59S 05°14' E 011°24'1 1.1
2018-Feb-14 10:30S 05°15' E 011°24'1 1.2
2018-Feb-14 09:59S 05°15' E 011°25'1 1.2
2018-Feb-14 09:30S 05°16' E 011°25'1 1.3
2018-Feb-14 09:00S 05°16' E 011°25'1 1.4
2018-Feb-14 08:29S 05°17' E 011°25'1 1.3
2018-Feb-14 08:00S 05°18' E 011°25'1 1.3
2018-Feb-14 07:30S 05°18' E 011°26'1 1.1
2018-Feb-14 06:58S 05°19' E 011°26'0 0.3
2018-Feb-14 06:30S 05°19' E 011°26'3 5.8
2018-Feb-14 06:00S 05°20' E 011°23'0 0.9
2018-Feb-14 05:30S 05°20' E 011°23'0 0.2
2018-Feb-14 05:00S 05°20' E 011°23'0 0.3
2018-Feb-14 04:30S 05°20' E 011°23'0 0.3
2018-Feb-14 04:00S 05°20' E 011°23'0 0.1
2018-Feb-14 03:30S 05°20' E 011°23'0 0.0
2018-Feb-14 03:00S 05°20' E 011°23'0 0.0
2018-Feb-14 02:30S 05°20' E 011°23'0 0.0
2018-Feb-14 01:58S 05°20' E 011°23'0 0.2
2018-Feb-14 01:29S 05°20' E 011°23'1 1.4
2018-Feb-14 01:00S 05°19' E 011°24'3 6.3
2018-Feb-14 00:29S 05°16' E 011°25'3 6.3
2018-Feb-13 23:59S 05°14' E 011°27'3 6.3
2018-Feb-13 23:29S 05°11' E 011°28'3 6.2
2018-Feb-13 23:00S 05°08' E 011°29'3 6.3
2018-Feb-13 22:30S 05°05' E 011°30'3 6.3
2018-Feb-13 22:00S 05°02' E 011°32'3 6.2
2018-Feb-13 21:27S 04°59' E 011°33'5 0.2
2018-Feb-12 23:22S 05°04' E 011°31'3 6.8
2018-Feb-12 22:59S 05°06' E 011°29'3 6.7
2018-Feb-12 22:30S 05°09' E 011°28'4 6.8
2018-Feb-12 21:59S 05°12' E 011°26'3 6.6
2018-Feb-12 21:30S 05°15' E 011°25'3 5.6
2018-Feb-12 21:00S 05°17' E 011°23'0 0.1
2018-Feb-12 20:29S 05°17' E 011°23'0 0.0
2018-Feb-12 20:00S 05°17' E 011°23'0 0.1
2018-Feb-12 19:30S 05°17' E 011°23'0 0.2
2018-Feb-12 18:59S 05°17' E 011°23'0 0.0
2018-Feb-12 18:30S 05°17' E 011°23'0 0.0
2018-Feb-12 18:00S 05°17' E 011°23'0 0.0
2018-Feb-12 17:30S 05°17' E 011°23'0 0.0
2018-Feb-12 17:00S 05°17' E 011°23'0 0.2
2018-Feb-12 16:28S 05°17' E 011°23'0 0.3
2018-Feb-12 15:58S 05°17' E 011°23'0 0.1
2018-Feb-12 15:30S 05°17' E 011°23'0 0.3
2018-Feb-12 15:00S 05°17' E 011°23'0 0.3
2018-Feb-12 14:30S 05°17' E 011°24'1 1.5
2018-Feb-12 14:00S 05°18' E 011°24'2 3.5
2018-Feb-12 13:30S 05°20' E 011°24'0 0.1
2018-Feb-12 13:00S 05°20' E 011°24'0 0.0
2018-Feb-12 12:30S 05°20' E 011°24'0 0.0
2018-Feb-12 12:00S 05°20' E 011°24'0 0.0
2018-Feb-12 11:30S 05°20' E 011°24'0 0.0
2018-Feb-12 11:00S 05°20' E 011°24'0 0.0
2018-Feb-12 10:29S 05°20' E 011°24'0 0.0
2018-Feb-12 10:00S 05°20' E 011°24'0 0.1
2018-Feb-12 09:30S 05°20' E 011°24'0 0.0
2018-Feb-12 09:00S 05°20' E 011°24'0 0.0
2018-Feb-12 08:30S 05°20' E 011°24'0 0.0
2018-Feb-12 07:59S 05°20' E 011°24'0 0.0
2018-Feb-12 07:30S 05°20' E 011°24'0 0.0
2018-Feb-12 07:00S 05°20' E 011°24'0 0.0
2018-Feb-12 06:30S 05°20' E 011°24'0 0.0
2018-Feb-12 06:00S 05°20' E 011°24'0 0.0
2018-Feb-12 05:30S 05°20' E 011°24'0 0.0
2018-Feb-12 05:00S 05°20' E 011°24'0 0.1
2018-Feb-12 04:30S 05°20' E 011°24'0 0.0
2018-Feb-12 04:00S 05°20' E 011°24'0 0.0
2018-Feb-12 03:30S 05°20' E 011°24'0 0.0
2018-Feb-12 02:59S 05°20' E 011°24'0 0.1
2018-Feb-12 02:30S 05°20' E 011°24'0 0.0
2018-Feb-12 02:00S 05°20' E 011°24'0 0.0
2018-Feb-12 01:29S 05°20' E 011°24'0 0.0
2018-Feb-12 00:59S 05°20' E 011°24'0 0.0
2018-Feb-12 00:30S 05°20' E 011°24'0 0.0
2018-Feb-12 00:00S 05°20' E 011°24'0 0.0
2018-Feb-11 23:29S 05°20' E 011°24'0 0.0
2018-Feb-11 22:58S 05°20' E 011°24'0 0.0
2018-Feb-11 22:29S 05°20' E 011°24'0 0.0
2018-Feb-11 22:00S 05°20' E 011°24'0 0.0
2018-Feb-11 21:29S 05°20' E 011°24'0 0.0
2018-Feb-11 21:00S 05°20' E 011°24'0 0.0
2018-Feb-11 20:22S 05°20' E 011°24'0 0.0
2018-Feb-11 20:00S 05°20' E 011°24'0 0.0
2018-Feb-11 19:29S 05°20' E 011°24'0 0.1
2018-Feb-11 19:00S 05°20' E 011°24'0 0.0
2018-Feb-11 18:30S 05°20' E 011°24'0 0.0
2018-Feb-11 17:59S 05°20' E 011°24'0 0.0
2018-Feb-11 17:28S 05°20' E 011°24'0 0.1
2018-Feb-11 16:59S 05°20' E 011°24'0 0.3
2018-Feb-11 16:29S 05°20' E 011°24'0 0.4
2018-Feb-11 16:00S 05°20' E 011°24'0 0.1
2018-Feb-11 15:28S 05°20' E 011°24'0 0.0
2018-Feb-11 14:59S 05°20' E 011°24'0 0.0
2018-Feb-11 14:28S 05°20' E 011°24'0 0.0
2018-Feb-11 14:00S 05°20' E 011°24'0 0.0
2018-Feb-11 13:24S 05°20' E 011°24'0 0.0
2018-Feb-11 13:00S 05°20' E 011°24'0 0.0
2018-Feb-11 12:30S 05°20' E 011°24'0 0.0
2018-Feb-11 11:59S 05°20' E 011°24'0 0.1
2018-Feb-11 11:30S 05°20' E 011°24'0 0.1
2018-Feb-11 11:00S 05°20' E 011°24'0 0.0
2018-Feb-11 10:30S 05°20' E 011°24'0 0.0
2018-Feb-11 10:00S 05°20' E 011°24'0 0.1
2018-Feb-11 09:28S 05°20' E 011°24'0 0.0
2018-Feb-11 09:00S 05°20' E 011°24'0 0.0
2018-Feb-11 08:30S 05°20' E 011°24'0 0.0
2018-Feb-11 07:59S 05°20' E 011°24'0 0.0
2018-Feb-11 07:29S 05°20' E 011°24'0 0.5
2018-Feb-11 06:59S 05°20' E 011°24'0 0.3
2018-Feb-11 06:30S 05°20' E 011°24'1 1.6
2018-Feb-11 05:55S 05°21' E 011°24'0 0.0
2018-Feb-11 05:30S 05°21' E 011°24'0 0.0
2018-Feb-11 05:00S 05°21' E 011°24'0 0.0
2018-Feb-11 04:30S 05°21' E 011°24'0 0.2
2018-Feb-11 04:00S 05°21' E 011°24'0 0.5
2018-Feb-11 03:30S 05°21' E 011°24'0 0.9
2018-Feb-11 03:00S 05°20' E 011°24'3 5.3
2018-Feb-11 02:30S 05°18' E 011°24'1 1.6
2018-Feb-11 02:00S 05°17' E 011°23'0 0.0
2018-Feb-11 01:30S 05°17' E 011°23'0 0.1
2018-Feb-11 01:00S 05°17' E 011°23'0 0.5
2018-Feb-11 00:30S 05°17' E 011°23'0 0.0
2018-Feb-10 23:59S 05°17' E 011°23'0 0.0
2018-Feb-10 23:30S 05°17' E 011°23'0 0.0
2018-Feb-10 23:00S 05°17' E 011°23'0 0.0
2018-Feb-10 22:30S 05°17' E 011°23'0 0.0
2018-Feb-10 22:00S 05°17' E 011°23'0 0.3
2018-Feb-10 21:30S 05°17' E 011°23'1 1.0
2018-Feb-10 20:59S 05°16' E 011°23'0 0.2
2018-Feb-10 20:30S 05°16' E 011°23'0 0.3
2018-Feb-10 20:00S 05°16' E 011°23'0 0.5
2018-Feb-10 19:30S 05°16' E 011°24'0 0.6
2018-Feb-10 19:00S 05°17' E 011°24'1 1.5
2018-Feb-10 18:30S 05°17' E 011°24'0 0.8
2018-Feb-10 18:00S 05°17' E 011°23'0 0.0
2018-Feb-10 17:30S 05°17' E 011°23'0 0.0
2018-Feb-10 16:59S 05°17' E 011°23'0 0.0
2018-Feb-10 16:29S 05°17' E 011°23'0 0.0
2018-Feb-10 16:00S 05°17' E 011°23'0 0.0
2018-Feb-10 15:30S 05°17' E 011°23'0 0.0
2018-Feb-10 15:00S 05°17' E 011°23'0 0.0
2018-Feb-10 14:30S 05°17' E 011°23'0 0.0
2018-Feb-10 13:54S 05°17' E 011°23'0 0.0
2018-Feb-10 13:29S 05°17' E 011°23'0 0.0
2018-Feb-10 13:00S 05°17' E 011°23'0 0.0
2018-Feb-10 12:30S 05°17' E 011°23'0 0.0
2018-Feb-10 12:00S 05°17' E 011°23'0 0.0
2018-Feb-10 11:30S 05°17' E 011°23'0 0.0
2018-Feb-10 10:58S 05°17' E 011°23'0 0.0
2018-Feb-10 10:30S 05°17' E 011°23'0 0.0
2018-Feb-10 10:00S 05°17' E 011°23'0 0.0
2018-Feb-10 09:27S 05°17' E 011°23'0 0.0
2018-Feb-10 08:59S 05°17' E 011°23'0 0.0
2018-Feb-10 08:29S 05°17' E 011°23'0 0.0
2018-Feb-10 08:00S 05°17' E 011°23'0 0.0
2018-Feb-10 07:30S 05°17' E 011°23'0 0.1
2018-Feb-10 07:00S 05°17' E 011°23'0 0.6
2018-Feb-10 06:30S 05°17' E 011°24'0 0.6
2018-Feb-10 06:00S 05°17' E 011°24'3 6.2
2018-Feb-10 05:29S 05°14' E 011°25'3 6.1
2018-Feb-10 05:00S 05°12' E 011°26'3 6.2
2018-Feb-10 04:30S 05°09' E 011°28'4 6.2
2018-Feb-10 03:50S 05°05' E 011°30'2 6.1
2018-Feb-10 03:30S 05°03' E 011°31'18 0.7
2018-Feb-09 01:00S 05°20' E 011°24'2 0.1
2018-Feb-08 01:30S 05°20' E 011°22'0 0.0
2018-Feb-08 01:00S 05°20' E 011°22'0 0.1
2018-Feb-08 00:29S 05°20' E 011°22'0 0.0
2018-Feb-07 23:59S 05°20' E 011°22'0 0.2
2018-Feb-07 23:28S 05°20' E 011°22'  
Track history (hours):
 
Tides and Currents Weather Stations Pressure Air Temp Water Temp Dewpoint Dewpoint Depression Visibility Wind Speed Wind Dir Waves Ship Positions

Posh Shearwater

Last reported at 2018-Feb-17 23:00 UTC. Time now 2018-Feb-17 23:14 UTC.
Position S 05°17' E 011°24'.

Length 79 m; draft 5 m.

Type: Other ship. MMSI: 371556000.

Date/timePositionNaut miles runAvg speedWind from/ knotsBaromVisibWave heightAir tempDewpointWater temp
2018-Feb-17 23:00S 05°17' E 011°24'2 2.9
2018-Feb-17 22:28S 05°15' E 011°24'3 6.3
2018-Feb-17 22:00S 05°13' E 011°26'3 6.1
2018-Feb-17 21:28S 05°10' E 011°27'33 5.0
2018-Feb-17 14:52S 04°47' E 011°51'0 0.0
2018-Feb-17 14:25S 04°47' E 011°51'0 0.0
2018-Feb-17 13:58S 04°47' E 011°51'0 0.0
2018-Feb-17 02:46S 04°47' E 011°51'0 0.0
2018-Feb-17 02:25S 04°47' E 011°51'0 0.0
2018-Feb-17 01:58S 04°47' E 011°51'30 0.6
2018-Feb-15 00:12S 05°08' E 011°29'1 6.3
2018-Feb-14 23:59S 05°09' E 011°29'3 6.3
2018-Feb-14 23:28S 05°12' E 011°27'3 6.4
2018-Feb-14 23:00S 05°15' E 011°26'3 6.3
2018-Feb-14 22:29S 05°18' E 011°25'3 5.6
2018-Feb-14 22:00S 05°20' E 011°24'0 0.6
2018-Feb-14 21:30S 05°20' E 011°24'0 0.0
2018-Feb-14 20:58S 05°20' E 011°24'0 0.0
2018-Feb-14 20:29S 05°20' E 011°24'0 0.0
2018-Feb-14 20:00S 05°20' E 011°24'0 0.0
2018-Feb-14 19:30S 05°20' E 011°24'0 0.0
2018-Feb-14 18:58S 05°20' E 011°24'0 0.0
2018-Feb-14 18:30S 05°20' E 011°24'0 0.0
2018-Feb-14 18:00S 05°20' E 011°24'0 0.0
2018-Feb-14 17:29S 05°20' E 011°24'0 0.0
2018-Feb-14 16:58S 05°20' E 011°24'0 0.3
2018-Feb-14 16:30S 05°20' E 011°24'0 0.3
2018-Feb-14 15:58S 05°20' E 011°24'0 0.0
2018-Feb-14 15:30S 05°20' E 011°24'0 0.0
2018-Feb-14 14:52S 05°20' E 011°24'0 0.0
2018-Feb-14 14:29S 05°20' E 011°24'0 0.4
2018-Feb-14 13:58S 05°20' E 011°24'0 0.3
2018-Feb-14 13:30S 05°20' E 011°23'0 0.6
2018-Feb-14 13:00S 05°19' E 011°23'3 5.2
2018-Feb-14 12:30S 05°17' E 011°24'3 5.6
2018-Feb-14 12:00S 05°14' E 011°23'1 1.4
2018-Feb-14 11:30S 05°14' E 011°24'1 1.1
2018-Feb-14 10:59S 05°14' E 011°24'1 1.1
2018-Feb-14 10:30S 05°15' E 011°24'1 1.2
2018-Feb-14 09:59S 05°15' E 011°25'1 1.2
2018-Feb-14 09:30S 05°16' E 011°25'1 1.3
2018-Feb-14 09:00S 05°16' E 011°25'1 1.4
2018-Feb-14 08:29S 05°17' E 011°25'1 1.3
2018-Feb-14 08:00S 05°18' E 011°25'1 1.3
2018-Feb-14 07:30S 05°18' E 011°26'1 1.1
2018-Feb-14 06:58S 05°19' E 011°26'0 0.3
2018-Feb-14 06:30S 05°19' E 011°26'3 5.8
2018-Feb-14 06:00S 05°20' E 011°23'0 0.9
2018-Feb-14 05:30S 05°20' E 011°23'0 0.2
2018-Feb-14 05:00S 05°20' E 011°23'0 0.3
2018-Feb-14 04:30S 05°20' E 011°23'0 0.3
2018-Feb-14 04:00S 05°20' E 011°23'0 0.1
2018-Feb-14 03:30S 05°20' E 011°23'0 0.0
2018-Feb-14 03:00S 05°20' E 011°23'0 0.0
2018-Feb-14 02:30S 05°20' E 011°23'0 0.0
2018-Feb-14 01:58S 05°20' E 011°23'0 0.2
2018-Feb-14 01:29S 05°20' E 011°23'1 1.4
2018-Feb-14 01:00S 05°19' E 011°24'3 6.3
2018-Feb-14 00:29S 05°16' E 011°25'3 6.3
2018-Feb-13 23:59S 05°14' E 011°27'3 6.3
2018-Feb-13 23:29S 05°11' E 011°28'3 6.2
2018-Feb-13 23:00S 05°08' E 011°29'3 6.3
2018-Feb-13 22:30S 05°05' E 011°30'3 6.3
2018-Feb-13 22:00S 05°02' E 011°32'3 6.2
2018-Feb-13 21:27S 04°59' E 011°33'5 0.2
2018-Feb-12 23:22S 05°04' E 011°31'3 6.8
2018-Feb-12 22:59S 05°06' E 011°29'3 6.7
2018-Feb-12 22:30S 05°09' E 011°28'4 6.8
2018-Feb-12 21:59S 05°12' E 011°26'3 6.6
2018-Feb-12 21:30S 05°15' E 011°25'3 5.6
2018-Feb-12 21:00S 05°17' E 011°23'0 0.1
2018-Feb-12 20:29S 05°17' E 011°23'0 0.0
2018-Feb-12 20:00S 05°17' E 011°23'0 0.1
2018-Feb-12 19:30S 05°17' E 011°23'0 0.2
2018-Feb-12 18:59S 05°17' E 011°23'0 0.0
2018-Feb-12 18:30S 05°17' E 011°23'0 0.0
2018-Feb-12 18:00S 05°17' E 011°23'0 0.0
2018-Feb-12 17:30S 05°17' E 011°23'0 0.0
2018-Feb-12 17:00S 05°17' E 011°23'0 0.2
2018-Feb-12 16:28S 05°17' E 011°23'0 0.3
2018-Feb-12 15:58S 05°17' E 011°23'0 0.1
2018-Feb-12 15:30S 05°17' E 011°23'0 0.3
2018-Feb-12 15:00S 05°17' E 011°23'0 0.3
2018-Feb-12 14:30S 05°17' E 011°24'1 1.5
2018-Feb-12 14:00S 05°18' E 011°24'2 3.5
2018-Feb-12 13:30S 05°20' E 011°24'0 0.1
2018-Feb-12 13:00S 05°20' E 011°24'0 0.0
2018-Feb-12 12:30S 05°20' E 011°24'0 0.0
2018-Feb-12 12:00S 05°20' E 011°24'0 0.0
2018-Feb-12 11:30S 05°20' E 011°24'0 0.0
2018-Feb-12 11:00S 05°20' E 011°24'0 0.0
2018-Feb-12 10:29S 05°20' E 011°24'0 0.0
2018-Feb-12 10:00S 05°20' E 011°24'0 0.1
2018-Feb-12 09:30S 05°20' E 011°24'0 0.0
2018-Feb-12 09:00S 05°20' E 011°24'0 0.0
2018-Feb-12 08:30S 05°20' E 011°24'0 0.0
2018-Feb-12 07:59S 05°20' E 011°24'0 0.0
2018-Feb-12 07:30S 05°20' E 011°24'0 0.0
2018-Feb-12 07:00S 05°20' E 011°24'0 0.0
2018-Feb-12 06:30S 05°20' E 011°24'0 0.0
2018-Feb-12 06:00S 05°20' E 011°24'0 0.0
2018-Feb-12 05:30S 05°20' E 011°24'0 0.0
2018-Feb-12 05:00S 05°20' E 011°24'0 0.1
2018-Feb-12 04:30S 05°20' E 011°24'0 0.0
2018-Feb-12 04:00S 05°20' E 011°24'0 0.0
2018-Feb-12 03:30S 05°20' E 011°24'0 0.0
2018-Feb-12 02:59S 05°20' E 011°24'0 0.1
2018-Feb-12 02:30S 05°20' E 011°24'0 0.0
2018-Feb-12 02:00S 05°20' E 011°24'0 0.0
2018-Feb-12 01:29S 05°20' E 011°24'0 0.0
2018-Feb-12 00:59S 05°20' E 011°24'0 0.0
2018-Feb-12 00:30S 05°20' E 011°24'0 0.0
2018-Feb-12 00:00S 05°20' E 011°24'0 0.0
2018-Feb-11 23:29S 05°20' E 011°24'0 0.0
2018-Feb-11 22:58S 05°20' E 011°24'0 0.0
2018-Feb-11 22:29S 05°20' E 011°24'0 0.0
2018-Feb-11 22:00S 05°20' E 011°24'0 0.0
2018-Feb-11 21:29S 05°20' E 011°24'0 0.0
2018-Feb-11 21:00S 05°20' E 011°24'0 0.0
2018-Feb-11 20:22S 05°20' E 011°24'0 0.0
2018-Feb-11 20:00S 05°20' E 011°24'0 0.0
2018-Feb-11 19:29S 05°20' E 011°24'0 0.1
2018-Feb-11 19:00S 05°20' E 011°24'0 0.0
2018-Feb-11 18:30S 05°20' E 011°24'0 0.0
2018-Feb-11 17:59S 05°20' E 011°24'0 0.0
2018-Feb-11 17:28S 05°20' E 011°24'0 0.1
2018-Feb-11 16:59S 05°20' E 011°24'0 0.3
2018-Feb-11 16:29S 05°20' E 011°24'0 0.4
2018-Feb-11 16:00S 05°20' E 011°24'0 0.1
2018-Feb-11 15:28S 05°20' E 011°24'0 0.0
2018-Feb-11 14:59S 05°20' E 011°24'0 0.0
2018-Feb-11 14:28S 05°20' E 011°24'0 0.0
2018-Feb-11 14:00S 05°20' E 011°24'0 0.0
2018-Feb-11 13:24S 05°20' E 011°24'0 0.0
2018-Feb-11 13:00S 05°20' E 011°24'0 0.0
2018-Feb-11 12:30S 05°20' E 011°24'0 0.0
2018-Feb-11 11:59S 05°20' E 011°24'0 0.1
2018-Feb-11 11:30S 05°20' E 011°24'0 0.1
2018-Feb-11 11:00S 05°20' E 011°24'0 0.0
2018-Feb-11 10:30S 05°20' E 011°24'0 0.0
2018-Feb-11 10:00S 05°20' E 011°24'0 0.1
2018-Feb-11 09:28S 05°20' E 011°24'0 0.0
2018-Feb-11 09:00S 05°20' E 011°24'0 0.0
2018-Feb-11 08:30S 05°20' E 011°24'0 0.0
2018-Feb-11 07:59S 05°20' E 011°24'0 0.0
2018-Feb-11 07:29S 05°20' E 011°24'0 0.5
2018-Feb-11 06:59S 05°20' E 011°24'0 0.3
2018-Feb-11 06:30S 05°20' E 011°24'1 1.6
2018-Feb-11 05:55S 05°21' E 011°24'0 0.0
2018-Feb-11 05:30S 05°21' E 011°24'0 0.0
2018-Feb-11 05:00S 05°21' E 011°24'0 0.0
2018-Feb-11 04:30S 05°21' E 011°24'0 0.2
2018-Feb-11 04:00S 05°21' E 011°24'0 0.5
2018-Feb-11 03:30S 05°21' E 011°24'0 0.9
2018-Feb-11 03:00S 05°20' E 011°24'3 5.3
2018-Feb-11 02:30S 05°18' E 011°24'1 1.6
2018-Feb-11 02:00S 05°17' E 011°23'0 0.0
2018-Feb-11 01:30S 05°17' E 011°23'0 0.1
2018-Feb-11 01:00S 05°17' E 011°23'0 0.5
2018-Feb-11 00:30S 05°17' E 011°23'0 0.0
2018-Feb-10 23:59S 05°17' E 011°23'0 0.0
2018-Feb-10 23:30S 05°17' E 011°23'0 0.0
2018-Feb-10 23:00S 05°17' E 011°23'0 0.0
2018-Feb-10 22:30S 05°17' E 011°23'0 0.0
2018-Feb-10 22:00S 05°17' E 011°23'0 0.3
2018-Feb-10 21:30S 05°17' E 011°23'1 1.0
2018-Feb-10 20:59S 05°16' E 011°23'0 0.2
2018-Feb-10 20:30S 05°16' E 011°23'0 0.3
2018-Feb-10 20:00S 05°16' E 011°23'0 0.5
2018-Feb-10 19:30S 05°16' E 011°24'0 0.6
2018-Feb-10 19:00S 05°17' E 011°24'1 1.5
2018-Feb-10 18:30S 05°17' E 011°24'0 0.8
2018-Feb-10 18:00S 05°17' E 011°23'0 0.0
2018-Feb-10 17:30S 05°17' E 011°23'0 0.0
2018-Feb-10 16:59S 05°17' E 011°23'0 0.0
2018-Feb-10 16:29S 05°17' E 011°23'0 0.0
2018-Feb-10 16:00S 05°17' E 011°23'0 0.0
2018-Feb-10 15:30S 05°17' E 011°23'0 0.0
2018-Feb-10 15:00S 05°17' E 011°23'0 0.0
2018-Feb-10 14:30S 05°17' E 011°23'0 0.0
2018-Feb-10 13:54S 05°17' E 011°23'0 0.0
2018-Feb-10 13:29S 05°17' E 011°23'0 0.0
2018-Feb-10 13:00S 05°17' E 011°23'0 0.0
2018-Feb-10 12:30S 05°17' E 011°23'0 0.0
2018-Feb-10 12:00S 05°17' E 011°23'0 0.0
2018-Feb-10 11:30S 05°17' E 011°23'0 0.0
2018-Feb-10 10:58S 05°17' E 011°23'0 0.0
2018-Feb-10 10:30S 05°17' E 011°23'0 0.0
2018-Feb-10 10:00S 05°17' E 011°23'0 0.0
2018-Feb-10 09:27S 05°17' E 011°23'0 0.0
2018-Feb-10 08:59S 05°17' E 011°23'0 0.0
2018-Feb-10 08:29S 05°17' E 011°23'0 0.0
2018-Feb-10 08:00S 05°17' E 011°23'0 0.0
2018-Feb-10 07:30S 05°17' E 011°23'0 0.1
2018-Feb-10 07:00S 05°17' E 011°23'0 0.6
2018-Feb-10 06:30S 05°17' E 011°24'0 0.6
2018-Feb-10 06:00S 05°17' E 011°24'3 6.2
2018-Feb-10 05:29S 05°14' E 011°25'3 6.1
2018-Feb-10 05:00S 05°12' E 011°26'3 6.2
2018-Feb-10 04:30S 05°09' E 011°28'4 6.2
2018-Feb-10 03:50S 05°05' E 011°30'2 6.1
2018-Feb-10 03:30S 05°03' E 011°31'18 0.7
2018-Feb-09 01:00S 05°20' E 011°24'2 0.1
2018-Feb-08 01:30S 05°20' E 011°22'0 0.0
2018-Feb-08 01:00S 05°20' E 011°22'0 0.1
2018-Feb-08 00:29S 05°20' E 011°22'0 0.0
2018-Feb-07 23:59S 05°20' E 011°22'0 0.2
2018-Feb-07 23:28S 05°20' E 011°22'  

Dump ship's entire track history